createdAt,value
2022-10-17T00:02:06.160Z,3.17
2022-10-17T00:07:03.798Z,7.82
2022-10-17T00:09:30.091Z,5.93
2022-10-17T00:11:56.515Z,3.30
2022-10-17T00:14:22.821Z,4.88
2022-10-17T00:16:49.119Z,3.17
2022-10-17T00:19:15.455Z,5.07
2022-10-17T00:21:41.782Z,2.10
2022-10-17T00:24:08.293Z,4.65
2022-10-17T00:26:34.677Z,2.40
2022-10-17T00:29:01.028Z,6.45
2022-10-17T00:31:27.390Z,3.17
2022-10-17T00:33:54.012Z,3.20
2022-10-17T00:36:23.337Z,4.57
2022-10-17T00:38:55.448Z,2.85
2022-10-17T00:41:25.008Z,4.25
2022-10-17T00:43:54.309Z,3.85
2022-10-17T00:46:22.556Z,5.18
2022-10-17T00:48:50.911Z,2.83
2022-10-17T00:51:19.858Z,3.20
2022-10-17T00:53:46.882Z,6.22
2022-10-17T00:56:13.658Z,3.40
2022-10-17T00:58:40.057Z,4.53
2022-10-17T01:01:06.519Z,4.57
2022-10-17T01:03:32.992Z,3.58
2022-10-17T01:05:59.705Z,3.85
2022-10-17T01:08:26.069Z,2.88
2022-10-17T01:11:07.476Z,6.82
2022-10-17T01:13:44.692Z,6.07
2022-10-17T01:16:21.021Z,4.10
2022-10-17T01:18:50.080Z,5.43
2022-10-17T01:21:44.320Z,5.50
2022-10-17T01:24:36.953Z,4.15
2022-10-17T01:27:15.606Z,5.53
2022-10-17T01:29:55.974Z,5.20
2022-10-17T01:32:25.479Z,4.78
2022-10-17T01:35:05.222Z,3.90
2022-10-17T01:37:45.003Z,3.17
2022-10-17T01:40:28.529Z,2.25
2022-10-17T01:43:05.022Z,2.00
2022-10-17T01:46:00.618Z,3.72
2022-10-17T01:48:34.877Z,2.90
2022-10-17T01:51:21.146Z,3.60
2022-10-17T01:53:57.019Z,2.42
2022-10-17T01:56:26.299Z,5.47
2022-10-17T01:59:09.035Z,6.82
2022-10-17T02:01:38.014Z,4.05
2022-10-17T02:04:07.928Z,2.40
2022-10-17T02:06:36.150Z,6.13
2022-10-17T02:09:17.014Z,4.25
2022-10-17T02:11:50.434Z,4.10
2022-10-17T02:14:33.214Z,5.50
2022-10-17T02:17:05.846Z,3.10
2022-10-17T02:19:54.985Z,3.90
2022-10-17T02:22:43.865Z,5.22
2022-10-17T02:25:25.346Z,3.88
2022-10-17T02:28:03.377Z,7.15
2022-10-17T02:30:59.678Z,3.97
2022-10-17T02:33:35.301Z,5.60
2022-10-17T02:36:08.783Z,4.22
2022-10-17T02:38:35.591Z,4.00
2022-10-17T02:41:03.572Z,6.15
2022-10-17T02:43:30.210Z,4.22
2022-10-17T02:45:56.985Z,5.57
2022-10-17T02:48:59.478Z,4.63
2022-10-17T02:51:36.901Z,5.15
2022-10-17T02:54:24.444Z,3.63
2022-10-17T02:56:55.285Z,4.32
2022-10-17T02:59:24.828Z,6.50
2022-10-17T03:01:51.935Z,9.52
2022-10-17T03:04:19.738Z,4.93
2022-10-17T03:06:48.675Z,4.05
2022-10-17T03:09:15.449Z,4.72
2022-10-17T03:11:41.892Z,5.47
2022-10-17T03:14:08.311Z,7.00
2022-10-17T03:16:34.625Z,5.47
2022-10-17T03:19:00.954Z,7.55
2022-10-17T03:21:27.316Z,6.13
2022-10-17T03:23:53.648Z,5.35
2022-10-17T03:26:20.026Z,5.30
2022-10-17T03:28:48.549Z,4.70
2022-10-17T03:31:17.868Z,6.53
2022-10-17T03:33:44.190Z,7.30
2022-10-17T03:36:13.753Z,8.43
2022-10-17T03:38:40.619Z,5.18
2022-10-17T03:41:07.271Z,5.45
2022-10-17T03:43:33.792Z,4.82
2022-10-17T03:46:01.025Z,3.83
2022-10-17T03:48:29.090Z,3.85
2022-10-17T03:51:05.397Z,4.10
2022-10-17T03:53:32.299Z,7.20
2022-10-17T03:56:10.560Z,4.13
2022-10-17T03:58:36.966Z,3.60
2022-10-17T04:01:05.475Z,3.20
2022-10-17T04:03:32.086Z,4.72
2022-10-17T04:06:00.261Z,4.07
2022-10-17T04:08:27.632Z,5.25
2022-10-17T04:10:59.210Z,4.38
2022-10-17T04:13:25.871Z,4.47
2022-10-17T04:16:00.701Z,6.03
2022-10-17T04:18:27.411Z,3.38
2022-10-17T04:20:54.363Z,4.43
2022-10-17T04:23:21.002Z,6.10
2022-10-17T04:25:47.322Z,5.95
2022-10-17T04:28:13.653Z,3.33
2022-10-17T04:30:42.324Z,3.55
2022-10-17T04:33:11.472Z,3.45
2022-10-17T04:35:37.839Z,4.70
2022-10-17T04:38:04.218Z,3.08
2022-10-17T04:40:30.556Z,3.30
2022-10-17T04:42:57.144Z,5.85
2022-10-17T04:45:23.490Z,5.47
2022-10-17T04:47:49.782Z,6.07
2022-10-17T04:50:16.175Z,4.35
2022-10-17T04:52:42.504Z,4.65
2022-10-17T04:55:09.223Z,4.20
2022-10-17T04:57:35.846Z,5.28
2022-10-17T05:00:02.423Z,7.07
2022-10-17T05:02:28.993Z,4.95
2022-10-17T05:04:55.515Z,5.28
2022-10-17T05:07:21.920Z,4.53
2022-10-17T05:09:48.240Z,5.90
2022-10-17T05:12:14.565Z,6.00
2022-10-17T05:14:40.881Z,5.43
2022-10-17T05:17:07.413Z,4.13
2022-10-17T05:19:33.707Z,4.82
2022-10-17T05:22:00.045Z,5.07
2022-10-17T05:24:26.343Z,5.05
2022-10-17T05:26:52.693Z,11.65
2022-10-17T05:29:19.122Z,6.68
2022-10-17T05:31:45.437Z,7.40
2022-10-17T05:34:13.907Z,5.63
2022-10-17T05:36:40.583Z,7.97
2022-10-17T05:39:06.895Z,4.60
2022-10-17T05:41:33.187Z,6.90
2022-10-17T05:44:03.066Z,5.93
2022-10-17T05:46:31.825Z,7.05
2022-10-17T05:48:58.282Z,4.40
2022-10-17T05:51:24.643Z,7.97
2022-10-17T05:53:51.011Z,4.95
2022-10-17T05:56:17.375Z,5.28
2022-10-17T05:58:50.455Z,5.95
2022-10-17T06:01:18.771Z,6.85
2022-10-17T06:03:45.119Z,5.03
2022-10-17T06:06:13.075Z,9.63
2022-10-17T06:08:39.693Z,5.07
2022-10-17T06:11:09.248Z,8.43
2022-10-17T06:13:36.711Z,9.05
2022-10-17T06:16:03.106Z,5.28
2022-10-17T06:18:29.473Z,5.63
2022-10-17T06:21:02.477Z,4.57
2022-10-17T06:23:28.878Z,5.72
2022-10-17T06:25:59.079Z,5.15
2022-10-17T06:28:25.427Z,7.10
2022-10-17T06:30:51.860Z,7.28
2022-10-17T06:33:18.225Z,7.55
2022-10-17T06:35:50.426Z,7.88
2022-10-17T06:38:16.757Z,6.50
2022-10-17T06:40:43.049Z,7.82
2022-10-17T06:43:09.357Z,8.88
2022-10-17T06:45:38.987Z,6.78
2022-10-17T06:48:05.939Z,5.35
2022-10-17T06:50:32.229Z,7.20
2022-10-17T06:52:58.556Z,9.23
2022-10-17T06:55:24.882Z,8.02
2022-10-17T06:57:52.263Z,9.68
2022-10-17T07:00:18.679Z,7.32
2022-10-17T07:02:45.026Z,6.78
2022-10-17T07:05:11.649Z,9.18
2022-10-17T07:07:40.200Z,7.53
2022-10-17T07:10:09.623Z,7.35
2022-10-17T07:12:36.175Z,7.18
2022-10-17T07:15:06.619Z,7.22
2022-10-17T07:17:32.976Z,12.25
2022-10-17T07:19:59.339Z,9.52
2022-10-17T07:22:25.742Z,9.30
2022-10-17T07:24:52.078Z,8.55
2022-10-17T07:27:18.586Z,11.90
2022-10-17T07:29:44.958Z,9.27
2022-10-17T07:32:11.276Z,11.65
2022-10-17T07:34:37.638Z,11.63
2022-10-17T07:37:04.312Z,10.38
2022-10-17T07:39:30.632Z,15.55
2022-10-17T07:41:57.140Z,11.38
2022-10-17T07:44:23.480Z,10.73
2022-10-17T07:46:49.827Z,12.15
2022-10-17T07:49:16.159Z,10.63
2022-10-17T07:51:42.629Z,11.35
2022-10-17T07:54:09.161Z,10.27
2022-10-17T07:56:36.021Z,10.27
2022-10-17T07:59:05.169Z,10.15
2022-10-17T08:01:34.737Z,10.95
2022-10-17T08:04:01.193Z,12.00
2022-10-17T08:06:27.547Z,11.00
2022-10-17T08:08:53.849Z,9.35
2022-10-17T08:11:21.216Z,8.30
2022-10-17T08:13:47.588Z,9.70
2022-10-17T08:16:13.976Z,9.48
2022-10-17T08:18:41.629Z,12.50
2022-10-17T08:21:08.552Z,9.13
2022-10-17T08:23:36.306Z,11.60
2022-10-17T08:26:05.192Z,11.77
2022-10-17T08:28:34.477Z,8.98
2022-10-17T08:31:09.970Z,8.15
2022-10-17T08:33:36.969Z,8.43
2022-10-17T08:36:05.366Z,6.75
2022-10-17T08:38:35.453Z,6.47
2022-10-17T08:41:15.549Z,10.18
2022-10-17T08:44:00.652Z,6.85
2022-10-17T08:46:34.308Z,5.63
2022-10-17T08:49:05.677Z,7.00
2022-10-17T08:51:37.040Z,6.47
2022-10-17T08:54:40.433Z,7.00
2022-10-17T08:57:12.891Z,6.20
2022-10-17T08:59:39.429Z,8.40
2022-10-17T09:02:31.833Z,6.80
2022-10-17T09:05:29.034Z,9.52
2022-10-17T09:08:05.975Z,6.18
2022-10-17T09:10:58.560Z,8.15
2022-10-17T09:13:49.376Z,6.05
2022-10-17T09:16:25.722Z,6.72
2022-10-17T09:19:15.718Z,7.85
2022-10-17T09:21:48.496Z,5.97
2022-10-17T09:24:28.017Z,5.38
2022-10-17T09:26:55.464Z,9.20
2022-10-17T09:29:24.829Z,5.97
2022-10-17T09:32:19.192Z,5.45
2022-10-17T09:34:45.595Z,5.65
2022-10-17T09:37:16.823Z,5.72
2022-10-17T09:39:44.600Z,5.72
2022-10-17T09:42:18.646Z,7.00
2022-10-17T09:44:51.437Z,4.82
2022-10-17T09:47:25.554Z,4.70
2022-10-17T09:49:52.396Z,7.13
2022-10-17T09:52:24.853Z,5.25
2022-10-17T09:55:20.167Z,4.63
2022-10-17T09:58:04.888Z,5.60
2022-10-17T10:00:43.662Z,5.13
2022-10-17T10:03:12.698Z,8.52
2022-10-17T10:05:40.637Z,8.18
2022-10-17T10:08:18.907Z,6.25
2022-10-17T10:10:45.591Z,5.35
2022-10-17T10:13:14.742Z,4.47
2022-10-17T10:15:42.653Z,4.82
2022-10-17T10:18:36.073Z,5.40
2022-10-17T10:21:08.688Z,6.05
2022-10-17T10:23:40.012Z,7.40
2022-10-17T10:28:58.643Z,5.63
2022-10-17T10:31:31.494Z,4.22
2022-10-17T10:34:01.142Z,7.40
2022-10-17T10:36:43.866Z,6.20
2022-10-17T10:39:32.520Z,5.90
2022-10-17T10:42:01.128Z,7.05
2022-10-17T10:44:31.911Z,4.15
2022-10-17T10:47:19.893Z,5.55
2022-10-17T10:49:46.312Z,9.88
2022-10-17T10:52:35.490Z,7.20
2022-10-17T10:55:17.498Z,7.20
2022-10-17T10:57:46.984Z,4.70
2022-10-17T11:00:19.743Z,8.25
2022-10-17T11:03:17.835Z,8.68
2022-10-17T11:05:53.256Z,5.90
2022-10-17T11:09:13.945Z,4.38
2022-10-17T11:11:56.097Z,4.75
2022-10-17T11:14:45.019Z,6.32
2022-10-17T11:17:32.811Z,6.35
2022-10-17T11:20:10.873Z,4.70
2022-10-17T11:22:47.545Z,7.18
2022-10-17T11:25:29.755Z,3.53
2022-10-17T11:27:58.696Z,4.15
2022-10-17T11:30:36.444Z,4.70
2022-10-17T11:33:04.986Z,6.45
2022-10-17T11:35:40.333Z,4.68
2022-10-17T11:38:18.357Z,7.28
2022-10-17T11:40:50.071Z,5.93
2022-10-17T11:43:16.397Z,7.63
2022-10-17T11:45:47.149Z,5.20
2022-10-17T11:48:22.771Z,7.32
2022-10-17T11:54:04.577Z,7.03
2022-10-17T11:56:48.669Z,4.88
2022-10-17T11:59:42.683Z,15.40
2022-10-17T12:02:23.564Z,11.75
2022-10-17T12:05:12.181Z,6.90
2022-10-17T12:07:55.032Z,5.43
2022-10-17T12:10:44.109Z,5.22
2022-10-17T12:13:28.654Z,8.23
2022-10-17T12:15:56.245Z,7.47
2022-10-17T12:18:27.312Z,8.27
2022-10-17T12:21:00.890Z,7.43
2022-10-17T12:23:31.991Z,6.15
2022-10-17T12:26:03.272Z,6.55
2022-10-17T12:28:39.971Z,8.55
2022-10-17T12:31:23.094Z,6.47
2022-10-17T12:33:51.760Z,6.55
2022-10-17T12:36:26.957Z,6.30
2022-10-17T12:39:02.395Z,7.15
2022-10-17T12:41:37.898Z,5.10
2022-10-17T12:44:13.321Z,8.50
2022-10-17T12:46:59.666Z,11.27
2022-10-17T12:49:45.880Z,11.52
2022-10-17T12:52:35.146Z,16.20
2022-10-17T12:55:13.422Z,4.47
2022-10-17T12:57:46.927Z,4.25
2022-10-17T13:00:18.354Z,9.68
2022-10-17T13:02:45.755Z,7.18
2022-10-17T13:05:28.413Z,6.32
2022-10-17T13:07:56.612Z,7.47
2022-10-17T13:13:06.783Z,7.35
2022-10-17T13:15:34.928Z,6.65
2022-10-17T13:18:01.798Z,4.50
2022-10-17T13:20:31.576Z,5.68
2022-10-17T13:22:59.537Z,5.20
2022-10-17T13:25:27.422Z,5.68
2022-10-17T13:28:06.359Z,4.90
2022-10-17T13:30:35.746Z,6.20
2022-10-17T13:33:03.415Z,4.55
2022-10-17T13:38:29.514Z,5.97
2022-10-17T13:41:01.996Z,7.43
2022-10-17T13:43:42.703Z,4.82
2022-10-17T13:46:37.808Z,11.10
2022-10-17T13:49:18.637Z,3.70
2022-10-17T13:51:47.876Z,5.03
2022-10-17T13:54:39.944Z,5.00
2022-10-17T13:59:47.622Z,7.45
2022-10-17T14:02:16.850Z,6.35
2022-10-17T14:05:16.150Z,5.20
2022-10-17T14:07:58.024Z,5.15
2022-10-17T14:10:38.730Z,3.13
2022-10-17T14:13:08.202Z,5.90
2022-10-17T14:15:36.328Z,8.88
2022-10-17T14:18:08.357Z,4.38
2022-10-17T14:23:30.730Z,8.43
2022-10-17T14:26:08.288Z,14.38
2022-10-17T14:28:35.283Z,7.53
2022-10-17T14:31:18.326Z,6.05
2022-10-17T14:33:50.514Z,3.42
2022-10-17T14:36:18.538Z,5.95
2022-10-17T14:38:51.868Z,6.38
2022-10-17T14:44:40.423Z,7.47
2022-10-17T14:47:41.777Z,3.72
2022-10-17T14:50:06.699Z,7.43
2022-10-17T14:52:34.066Z,8.98
2022-10-17T14:55:17.251Z,5.05
2022-10-17T14:57:45.221Z,4.80
2022-10-17T15:00:16.838Z,5.20
2022-10-17T15:02:43.657Z,8.20
2022-10-17T15:05:13.205Z,3.22
2022-10-17T15:07:40.531Z,36.63
2022-10-17T15:10:07.203Z,21.50
2022-10-17T15:12:33.575Z,16.75
2022-10-17T15:14:59.933Z,6.70
2022-10-17T15:17:29.506Z,8.13
2022-10-17T15:19:56.393Z,5.45
2022-10-17T15:22:23.581Z,5.65
2022-10-17T15:24:50.132Z,3.72
2022-10-17T15:27:19.572Z,9.55
2022-10-17T15:29:46.811Z,6.18
2022-10-17T15:32:14.012Z,8.32
2022-10-17T15:34:40.494Z,8.30
2022-10-17T15:37:16.096Z,8.48
2022-10-17T15:39:42.528Z,7.78
2022-10-17T15:42:11.910Z,3.80
2022-10-17T15:44:38.321Z,8.80
2022-10-17T15:47:05.402Z,6.57
2022-10-17T15:49:31.720Z,11.35
2022-10-17T15:51:58.082Z,12.25
2022-10-17T15:54:24.389Z,10.80
2022-10-17T15:56:54.786Z,11.23
2022-10-17T15:59:24.202Z,8.65
2022-10-17T16:01:50.679Z,9.07
2022-10-17T16:04:18.376Z,6.60
2022-10-17T16:06:44.795Z,5.90
2022-10-17T16:09:11.204Z,11.55
2022-10-17T16:11:40.015Z,10.82
2022-10-17T16:14:10.896Z,8.27
2022-10-17T16:16:37.289Z,7.87
2022-10-17T16:19:04.770Z,6.70
2022-10-17T16:21:34.350Z,6.45
2022-10-17T16:24:00.878Z,6.00
2022-10-17T16:26:28.143Z,4.95
2022-10-17T16:28:55.984Z,6.28
2022-10-17T16:31:29.275Z,7.85
2022-10-17T16:33:57.235Z,5.75
2022-10-17T16:36:24.381Z,4.95
2022-10-17T16:38:52.429Z,5.00
2022-10-17T16:41:25.361Z,5.55
2022-10-17T16:43:53.660Z,5.88
2022-10-17T16:46:21.030Z,6.10
2022-10-17T16:48:47.917Z,7.70
2022-10-17T16:51:15.332Z,6.70
2022-10-17T16:53:45.119Z,8.18
2022-10-17T16:56:15.501Z,9.27
2022-10-17T16:58:42.624Z,8.85
2022-10-17T17:01:12.951Z,12.00
2022-10-17T17:03:41.565Z,6.75
2022-10-17T17:06:11.933Z,5.95
2022-10-17T17:08:38.411Z,7.60
2022-10-17T17:11:12.325Z,7.03
2022-10-17T17:13:38.828Z,5.53
2022-10-17T17:16:08.033Z,7.03
2022-10-17T17:18:34.478Z,8.93
2022-10-17T17:21:03.214Z,9.27
2022-10-17T17:23:30.747Z,8.90
2022-10-17T17:25:59.088Z,6.25
2022-10-17T17:28:26.397Z,6.03
2022-10-17T17:30:53.316Z,5.68
2022-10-17T17:33:19.713Z,8.55
2022-10-17T17:35:46.049Z,8.55
2022-10-17T17:38:12.382Z,6.20
2022-10-17T17:40:49.691Z,7.68
2022-10-17T17:43:17.738Z,9.70
2022-10-17T17:45:44.187Z,7.47
2022-10-17T17:48:11.013Z,9.38
2022-10-17T17:50:38.556Z,15.20
2022-10-17T17:53:06.160Z,7.75
2022-10-17T17:55:33.591Z,8.77
2022-10-17T17:58:00.129Z,7.40
2022-10-17T18:00:27.395Z,7.45
2022-10-17T18:02:54.324Z,6.78
2022-10-17T18:05:20.769Z,8.60
2022-10-17T18:07:47.219Z,8.57
2022-10-17T18:12:42.001Z,6.30
2022-10-17T18:15:08.542Z,10.85
2022-10-17T18:17:35.093Z,6.40
2022-10-17T18:20:02.695Z,6.75
2022-10-17T18:22:29.434Z,8.43
2022-10-17T18:24:56.077Z,8.52
2022-10-17T18:27:22.543Z,6.82
2022-10-17T18:29:50.333Z,6.20
2022-10-17T18:32:17.112Z,8.40
2022-10-17T18:34:43.509Z,9.30
2022-10-17T18:37:09.882Z,8.90
2022-10-17T18:39:36.241Z,6.20
2022-10-17T18:42:02.669Z,5.90
2022-10-17T18:44:29.164Z,5.60
2022-10-17T18:46:58.537Z,7.13
2022-10-17T18:49:27.887Z,5.43
2022-10-17T18:51:54.238Z,11.63
2022-10-17T18:54:22.124Z,6.95
2022-10-17T18:56:53.005Z,10.07
2022-10-17T18:59:19.964Z,8.80
2022-10-17T19:01:46.955Z,6.60
2022-10-17T19:04:13.981Z,7.55
2022-10-17T19:06:40.913Z,8.20
2022-10-17T19:09:09.170Z,8.23
2022-10-17T19:11:37.424Z,7.95
2022-10-17T19:14:13.121Z,7.65
2022-10-17T19:16:47.797Z,8.48
2022-10-17T19:19:19.336Z,7.68
2022-10-17T19:21:45.844Z,10.95
2022-10-17T19:24:20.829Z,5.18
2022-10-17T19:26:50.175Z,7.40
2022-10-17T19:29:18.011Z,7.53
2022-10-17T19:31:45.404Z,7.05
2022-10-17T19:34:13.127Z,7.43
2022-10-17T19:36:40.453Z,8.10
2022-10-17T19:39:18.895Z,10.35
2022-10-17T19:41:47.135Z,8.45
2022-10-17T19:44:14.407Z,8.00
2022-10-17T19:46:41.289Z,8.30
2022-10-17T19:49:07.659Z,8.60
2022-10-17T19:51:34.333Z,7.97
2022-10-17T19:54:01.453Z,7.35
2022-10-17T19:56:32.385Z,8.77
2022-10-17T19:58:59.168Z,6.43
2022-10-17T20:01:31.986Z,7.40
2022-10-17T20:03:58.382Z,6.45
2022-10-17T20:06:25.345Z,9.07
2022-10-17T20:08:51.832Z,5.57
2022-10-17T20:11:22.051Z,8.63
2022-10-17T20:13:48.504Z,6.10
2022-10-17T20:16:23.510Z,7.78
2022-10-17T20:18:51.999Z,8.38
2022-10-17T20:21:22.397Z,14.18
2022-10-17T20:23:49.034Z,9.32
2022-10-17T20:26:37.093Z,7.95
2022-10-17T20:29:16.523Z,5.95
2022-10-17T20:31:44.898Z,8.23
2022-10-17T20:34:16.679Z,7.60
2022-10-17T20:39:12.020Z,6.20
2022-10-17T20:41:38.567Z,9.05
2022-10-17T20:44:06.714Z,11.05
2022-10-17T20:46:37.596Z,10.05
2022-10-17T20:49:06.954Z,11.38
2022-10-17T20:51:34.241Z,11.80
2022-10-17T20:54:00.657Z,10.95
2022-10-17T20:56:29.243Z,12.55
2022-10-17T20:59:00.777Z,12.07
2022-10-17T21:01:28.456Z,9.75
2022-10-17T21:03:55.028Z,14.93
2022-10-17T21:06:22.203Z,12.13
2022-10-17T21:08:49.390Z,9.90
2022-10-17T21:11:18.108Z,10.82
2022-10-17T21:13:45.319Z,10.32
2022-10-17T21:16:13.896Z,12.75
2022-10-17T21:18:40.761Z,12.98
2022-10-17T21:21:22.536Z,11.52
2022-10-17T21:23:50.677Z,12.52
2022-10-17T21:26:18.299Z,11.82
2022-10-17T21:28:46.920Z,12.10
2022-10-17T21:31:17.675Z,13.90
2022-10-17T21:33:47.145Z,10.38
2022-10-17T21:36:16.661Z,13.10
2022-10-17T21:38:44.809Z,13.98
2022-10-17T21:41:12.639Z,12.13
2022-10-17T21:43:38.938Z,11.48
2022-10-17T21:46:12.470Z,11.95
2022-10-17T21:48:39.223Z,11.05
2022-10-17T21:51:09.572Z,11.20
2022-10-17T21:53:36.618Z,12.02
2022-10-17T21:56:09.188Z,12.90
2022-10-17T21:58:35.524Z,13.23
2022-10-17T22:01:12.593Z,13.57
2022-10-17T22:03:44.209Z,13.77
2022-10-17T22:06:38.753Z,13.95
2022-10-17T22:09:02.796Z,15.57
2022-10-17T22:11:32.765Z,18.83
2022-10-17T22:14:01.948Z,17.42
2022-10-17T22:16:28.865Z,18.77
2022-10-17T22:19:03.194Z,13.77
2022-10-17T22:21:34.416Z,19.13
2022-10-17T22:24:03.052Z,17.00
2022-10-17T22:26:31.970Z,16.65
2022-10-17T22:28:58.413Z,15.23
2022-10-17T22:31:25.529Z,18.30
2022-10-17T22:33:51.848Z,21.73
2022-10-17T22:36:18.906Z,20.38
2022-10-17T22:38:45.273Z,18.42
2022-10-17T22:41:11.607Z,20.27
2022-10-17T22:43:37.926Z,14.10
2022-10-17T22:46:06.512Z,16.63
2022-10-17T22:48:33.342Z,15.93
2022-10-17T22:51:00.701Z,17.05
2022-10-17T22:53:27.232Z,15.20
2022-10-17T22:55:56.337Z,20.27
2022-10-17T22:58:23.661Z,19.35
2022-10-17T23:00:51.660Z,20.58
2022-10-17T23:03:19.403Z,22.90
2022-10-17T23:05:45.907Z,18.02
2022-10-17T23:08:13.506Z,19.17
2022-10-17T23:10:39.911Z,17.42
2022-10-17T23:13:06.865Z,18.23
2022-10-17T23:15:34.005Z,19.45
2022-10-17T23:18:01.658Z,18.45
2022-10-17T23:20:29.548Z,19.10
2022-10-17T23:22:56.303Z,18.45
2022-10-17T23:25:22.964Z,18.45
2022-10-17T23:27:49.313Z,18.60
2022-10-17T23:30:16.332Z,17.27
2022-10-17T23:32:42.704Z,18.20
2022-10-17T23:35:09.819Z,23.80
2022-10-17T23:37:36.305Z,19.67
2022-10-17T23:40:03.684Z,16.27
2022-10-17T23:42:30.306Z,17.77
2022-10-17T23:44:56.645Z,14.63
2022-10-17T23:47:22.937Z,16.48
2022-10-17T23:49:49.274Z,17.90
2022-10-17T23:52:15.805Z,18.45
2022-10-17T23:57:13.644Z,20.23
2022-10-17T23:59:40.041Z,24.42
